createdAt,value
2023-03-26T00:02:23.922Z,87.25
2023-03-26T00:04:56.138Z,87.08
2023-03-26T00:07:28.812Z,87.60
2023-03-26T00:10:00.996Z,87.60
2023-03-26T00:12:32.915Z,88.34
2023-03-26T00:15:05.550Z,89.30
2023-03-26T00:17:37.896Z,89.94
2023-03-26T00:20:12.886Z,90.03
2023-03-26T00:22:45.572Z,89.47
2023-03-26T00:25:17.776Z,89.34
2023-03-26T00:27:50.377Z,89.41
2023-03-26T00:30:22.549Z,90.10
2023-03-26T00:32:54.816Z,90.50
2023-03-26T00:35:27.181Z,90.69
2023-03-26T00:37:59.862Z,90.78
2023-03-26T00:40:32.044Z,90.45
2023-03-26T00:43:10.072Z,90.81
2023-03-26T00:45:42.291Z,91.01
2023-03-26T00:48:14.692Z,91.39
2023-03-26T00:50:48.759Z,91.98
2023-03-26T00:53:20.870Z,91.46
2023-03-26T00:55:53.494Z,91.32
2023-03-26T00:58:26.292Z,90.83
2023-03-26T01:01:01.146Z,91.04
2023-03-26T01:03:36.791Z,91.02
2023-03-26T01:06:12.825Z,91.02
2023-03-26T01:08:47.709Z,90.27
2023-03-26T01:11:21.687Z,90.40
2023-03-26T01:13:55.906Z,90.13
2023-03-26T01:16:32.527Z,89.80
2023-03-26T01:19:05.852Z,89.22
2023-03-26T01:21:38.687Z,89.16
2023-03-26T01:24:12.070Z,88.91
2023-03-26T01:27:24.426Z,88.53
2023-03-26T01:30:05.008Z,88.67
2023-03-26T01:32:59.534Z,88.12
2023-03-26T01:35:48.626Z,87.21
2023-03-26T01:38:29.636Z,87.40
2023-03-26T01:41:07.808Z,87.62
2023-03-26T01:43:47.372Z,88.21
2023-03-26T01:46:21.986Z,88.16
2023-03-26T01:48:55.415Z,88.14
2023-03-26T01:51:33.267Z,88.33
2023-03-26T01:54:09.955Z,88.28
2023-03-26T01:56:49.734Z,88.96
2023-03-26T01:59:37.677Z,89.03
2023-03-26T02:02:13.911Z,89.31
2023-03-26T02:04:53.991Z,89.29
2023-03-26T02:07:35.247Z,89.39
2023-03-26T02:10:13.771Z,89.15
2023-03-26T02:12:46.894Z,88.74
2023-03-26T02:15:19.453Z,88.71
2023-03-26T02:17:52.500Z,88.48
2023-03-26T02:20:25.724Z,88.39
2023-03-26T02:22:58.027Z,88.47
2023-03-26T02:25:29.030Z,88.70
2023-03-26T02:28:03.524Z,88.28
2023-03-26T02:30:35.698Z,88.09
2023-03-26T02:33:08.065Z,87.72
2023-03-26T02:35:46.107Z,87.68
2023-03-26T02:38:19.625Z,87.35
2023-03-26T02:40:51.522Z,87.04
2023-03-26T02:43:25.190Z,86.79
2023-03-26T02:45:57.511Z,86.69
2023-03-26T02:48:58.845Z,86.87
2023-03-26T02:51:29.599Z,86.35
2023-03-26T02:54:07.830Z,86.33
2023-03-26T02:56:58.573Z,86.61
2023-03-26T02:59:46.947Z,86.54
2023-03-26T03:02:44.457Z,86.72
2023-03-26T03:05:38.049Z,86.61
2023-03-26T03:08:30.966Z,86.55
2023-03-26T03:11:24.725Z,86.38
2023-03-26T03:13:57.490Z,86.32
2023-03-26T03:16:34.637Z,86.11
2023-03-26T03:19:13.678Z,85.75
2023-03-26T03:21:46.178Z,85.38
2023-03-26T03:24:19.023Z,85.37
2023-03-26T03:26:57.939Z,85.90
2023-03-26T03:29:41.432Z,85.49
2023-03-26T03:32:34.196Z,85.48
2023-03-26T03:35:10.099Z,85.53
2023-03-26T03:37:42.650Z,85.75
2023-03-26T03:40:15.158Z,86.14
2023-03-26T03:42:46.753Z,86.03
2023-03-26T03:45:20.339Z,86.16
2023-03-26T03:48:01.502Z,86.55
2023-03-26T03:50:40.546Z,86.14
2023-03-26T03:53:27.009Z,86.38
2023-03-26T03:56:01.960Z,86.38
2023-03-26T03:58:53.394Z,86.23
2023-03-26T04:01:33.028Z,86.07
2023-03-26T04:04:28.041Z,86.19
2023-03-26T04:07:06.427Z,86.77
2023-03-26T04:09:57.305Z,86.55
2023-03-26T04:12:31.994Z,86.39
2023-03-26T04:15:10.224Z,86.61
2023-03-26T04:17:44.070Z,86.28
2023-03-26T04:20:16.935Z,86.30
2023-03-26T04:22:49.900Z,86.13
2023-03-26T04:25:23.029Z,86.07
2023-03-26T04:28:10.576Z,86.02
2023-03-26T04:30:57.213Z,85.76
2023-03-26T04:33:39.166Z,85.63
2023-03-26T04:36:12.573Z,85.43
2023-03-26T04:38:49.115Z,85.63
2023-03-26T04:41:26.448Z,85.88
2023-03-26T04:44:02.929Z,85.71
2023-03-26T04:46:43.782Z,85.75
2023-03-26T04:49:24.343Z,86.02
2023-03-26T04:51:56.816Z,85.86
2023-03-26T04:54:48.702Z,85.56
2023-03-26T04:57:26.516Z,85.18
2023-03-26T05:00:19.263Z,85.43
2023-03-26T05:02:57.862Z,85.78
2023-03-26T05:05:30.859Z,85.64
2023-03-26T05:08:03.870Z,85.18
2023-03-26T05:10:36.382Z,85.14
2023-03-26T05:13:10.998Z,85.50
2023-03-26T05:15:45.441Z,85.33
2023-03-26T05:18:23.560Z,85.17
2023-03-26T05:20:58.012Z,84.75
2023-03-26T05:23:31.041Z,84.85
2023-03-26T05:26:22.769Z,84.43
2023-03-26T05:28:54.796Z,84.79
2023-03-26T05:31:30.756Z,84.39
2023-03-26T05:34:03.335Z,84.10
2023-03-26T05:36:35.604Z,84.09
2023-03-26T05:39:33.511Z,83.85
2023-03-26T05:42:25.675Z,83.00
2023-03-26T05:45:22.514Z,83.01
2023-03-26T05:47:56.541Z,83.22
2023-03-26T05:50:29.806Z,83.26
2023-03-26T05:53:05.236Z,83.49
2023-03-26T05:55:58.073Z,83.85
2023-03-26T05:58:59.821Z,83.83
2023-03-26T06:01:34.511Z,83.77
2023-03-26T06:04:25.044Z,83.89
2023-03-26T06:07:16.870Z,84.04
2023-03-26T06:09:53.432Z,84.21
2023-03-26T06:12:24.428Z,84.42
2023-03-26T06:14:56.866Z,84.24
2023-03-26T06:17:38.798Z,84.60
2023-03-26T06:20:19.494Z,84.77
2023-03-26T06:22:54.041Z,84.87
2023-03-26T06:25:30.045Z,84.94
2023-03-26T06:28:12.735Z,85.22
2023-03-26T06:31:10.940Z,85.17
2023-03-26T06:33:48.675Z,85.29
2023-03-26T06:36:19.842Z,85.81
2023-03-26T06:38:54.405Z,85.88
2023-03-26T06:41:26.541Z,85.68
2023-03-26T06:44:06.256Z,85.92
2023-03-26T06:47:13.168Z,85.94
2023-03-26T06:50:20.965Z,85.57
2023-03-26T06:53:05.502Z,85.81
2023-03-26T06:56:03.225Z,85.46
2023-03-26T06:59:03.576Z,84.98
2023-03-26T07:02:02.009Z,84.86
2023-03-26T07:05:07.001Z,85.04
2023-03-26T07:07:57.664Z,85.10
2023-03-26T07:10:49.161Z,84.91
2023-03-26T07:13:56.232Z,84.67
2023-03-26T07:16:49.772Z,84.48
2023-03-26T07:19:41.973Z,84.19
2023-03-26T07:22:21.151Z,83.87
2023-03-26T07:25:21.342Z,83.83
2023-03-26T07:28:40.135Z,84.31
2023-03-26T07:31:28.378Z,84.36
2023-03-26T07:34:32.916Z,84.09
2023-03-26T07:37:45.227Z,83.84
2023-03-26T07:40:58.562Z,84.00
2023-03-26T07:43:52.119Z,84.16
2023-03-26T07:46:48.139Z,83.88
2023-03-26T07:49:43.418Z,83.49
2023-03-26T07:52:22.349Z,83.51
2023-03-26T07:55:19.100Z,83.38
2023-03-26T07:58:24.232Z,83.08
2023-03-26T08:01:43.976Z,82.74
2023-03-26T08:04:56.991Z,82.60
2023-03-26T08:08:16.499Z,81.49
2023-03-26T08:11:14.314Z,81.27
2023-03-26T08:14:06.762Z,81.09
2023-03-26T08:16:47.920Z,81.19
2023-03-26T08:19:40.866Z,79.87
2023-03-26T08:22:15.664Z,77.48
2023-03-26T08:25:01.280Z,77.03
2023-03-26T08:27:40.273Z,77.41
2023-03-26T08:30:19.137Z,77.04
2023-03-26T08:32:58.596Z,78.05
2023-03-26T08:35:31.109Z,79.14
2023-03-26T08:38:02.108Z,80.11
2023-03-26T08:41:02.100Z,79.89
2023-03-26T08:43:58.274Z,79.67
2023-03-26T08:46:49.177Z,79.78
2023-03-26T08:50:10.113Z,79.54
2023-03-26T08:53:10.305Z,78.85
2023-03-26T08:55:53.518Z,78.19
2023-03-26T08:59:00.358Z,78.28
2023-03-26T09:01:49.768Z,77.82
2023-03-26T09:04:59.596Z,78.32
2023-03-26T09:07:59.666Z,77.38
2023-03-26T09:11:02.880Z,77.42
2023-03-26T09:13:59.319Z,76.95
2023-03-26T09:16:56.129Z,76.93
2023-03-26T09:19:57.036Z,77.31
2023-03-26T09:22:49.451Z,77.32
2023-03-26T09:25:50.852Z,76.29
2023-03-26T09:28:51.316Z,75.25
2023-03-26T09:32:02.502Z,74.52
2023-03-26T09:34:44.906Z,74.17
2023-03-26T09:37:26.019Z,74.15
2023-03-26T09:40:15.486Z,73.64
2023-03-26T09:42:54.402Z,73.72
2023-03-26T09:45:48.939Z,72.74
2023-03-26T09:48:42.079Z,72.44
2023-03-26T09:51:36.934Z,72.82
2023-03-26T09:54:37.292Z,72.51
2023-03-26T09:57:18.872Z,71.99
2023-03-26T10:00:09.988Z,71.84
2023-03-26T10:03:01.404Z,71.44
2023-03-26T10:05:46.174Z,71.67
2023-03-26T10:08:41.326Z,71.37
2023-03-26T10:11:20.315Z,72.05
2023-03-26T10:14:05.377Z,73.64
2023-03-26T10:16:49.205Z,75.73
2023-03-26T10:19:34.626Z,77.48
2023-03-26T10:22:17.678Z,78.02
2023-03-26T10:25:07.130Z,80.10
2023-03-26T10:27:50.676Z,82.80
2023-03-26T10:30:45.910Z,84.28
2023-03-26T10:33:31.784Z,84.51
2023-03-26T10:36:25.788Z,84.55
2023-03-26T10:39:35.992Z,83.66
2023-03-26T10:42:34.097Z,82.74
2023-03-26T10:45:25.606Z,81.75
2023-03-26T10:48:22.681Z,81.38
2023-03-26T10:51:08.958Z,79.29
2023-03-26T10:53:48.108Z,77.58
2023-03-26T10:56:26.561Z,76.61
2023-03-26T10:59:04.099Z,76.03
2023-03-26T11:01:48.073Z,75.72
2023-03-26T11:04:32.051Z,76.11
2023-03-26T11:07:19.906Z,75.47
2023-03-26T11:10:02.782Z,75.48
2023-03-26T11:12:43.095Z,75.72
2023-03-26T11:15:24.572Z,74.27
2023-03-26T11:18:07.052Z,73.29
2023-03-26T11:20:48.699Z,72.76
2023-03-26T11:23:34.519Z,71.62
2023-03-26T11:26:13.017Z,71.35
2023-03-26T11:29:32.393Z,70.16
2023-03-26T11:32:06.126Z,70.23
2023-03-26T11:34:41.704Z,69.23
2023-03-26T11:37:21.701Z,66.63
2023-03-26T11:39:57.691Z,65.78
2023-03-26T11:42:30.859Z,65.50
2023-03-26T11:45:08.599Z,64.40
2023-03-26T11:47:45.760Z,64.15
2023-03-26T11:50:23.017Z,62.86
2023-03-26T11:52:58.583Z,63.38
2023-03-26T11:55:33.575Z,64.34
2023-03-26T11:58:16.512Z,64.82
2023-03-26T12:00:48.749Z,64.38
2023-03-26T12:03:22.014Z,64.63
2023-03-26T12:05:59.520Z,65.66
2023-03-26T12:08:35.219Z,66.76
2023-03-26T12:11:13.236Z,68.76
2023-03-26T12:13:52.559Z,74.50
2023-03-26T12:16:25.273Z,80.04
2023-03-26T12:19:07.375Z,83.02
2023-03-26T12:21:49.612Z,84.59
2023-03-26T12:24:33.627Z,85.28
2023-03-26T12:27:28.507Z,85.52
2023-03-26T12:30:20.814Z,84.37
2023-03-26T12:32:57.132Z,82.22
2023-03-26T12:35:30.839Z,82.38
2023-03-26T12:38:28.985Z,81.88
2023-03-26T12:42:52.721Z,82.43
2023-03-26T12:44:54.711Z,81.58
2023-03-26T12:47:57.154Z,78.15
2023-03-26T12:50:18.343Z,76.08
2023-03-26T12:53:22.785Z,74.56
2023-03-26T12:56:05.244Z,73.16
2023-03-26T12:58:53.501Z,72.62
2023-03-26T13:01:35.488Z,72.13
2023-03-26T13:04:38.679Z,71.28
2023-03-26T13:07:18.412Z,70.85
2023-03-26T13:10:00.764Z,68.09
2023-03-26T13:12:41.870Z,68.13
2023-03-26T13:15:27.316Z,68.07
2023-03-26T13:18:16.282Z,68.03
2023-03-26T13:20:56.977Z,66.37
2023-03-26T13:23:40.797Z,67.06
2023-03-26T13:26:27.555Z,67.26
2023-03-26T13:29:08.049Z,66.56
2023-03-26T13:31:49.057Z,66.75
2023-03-26T13:34:30.917Z,66.44
2023-03-26T13:37:12.936Z,66.76
2023-03-26T13:39:55.006Z,66.57
2023-03-26T13:42:39.436Z,66.86
2023-03-26T13:45:24.605Z,66.26
2023-03-26T13:48:00.423Z,66.87
2023-03-26T13:50:35.000Z,66.99
2023-03-26T13:53:12.683Z,66.95
2023-03-26T13:55:48.684Z,66.58
2023-03-26T13:58:34.357Z,65.93
2023-03-26T14:01:11.237Z,65.49
2023-03-26T14:03:53.189Z,63.05
2023-03-26T14:06:42.032Z,61.23
2023-03-26T14:09:20.137Z,60.07
2023-03-26T14:12:21.191Z,59.82
2023-03-26T14:15:00.651Z,60.64
2023-03-26T14:17:39.643Z,60.54
2023-03-26T14:20:53.608Z,59.55
2023-03-26T14:23:49.928Z,59.18
2023-03-26T14:26:37.433Z,59.19
2023-03-26T14:29:32.620Z,58.57
2023-03-26T14:32:24.425Z,57.44
2023-03-26T14:35:21.716Z,58.06
2023-03-26T14:38:23.868Z,58.22
2023-03-26T14:41:03.098Z,58.30
2023-03-26T14:44:09.903Z,58.20
2023-03-26T14:47:04.682Z,58.56
2023-03-26T14:49:55.724Z,58.72
2023-03-26T14:52:40.575Z,58.68
2023-03-26T14:55:20.830Z,58.01
2023-03-26T14:58:07.486Z,57.98
2023-03-26T15:01:25.578Z,57.96
2023-03-26T15:04:33.557Z,58.64
2023-03-26T15:07:38.344Z,59.50
2023-03-26T15:10:49.634Z,59.85
2023-03-26T15:13:50.079Z,59.35
2023-03-26T15:16:55.286Z,59.34
2023-03-26T15:19:56.064Z,59.16
2023-03-26T15:22:59.441Z,59.31
2023-03-26T15:26:03.203Z,59.83
2023-03-26T15:28:49.641Z,60.05
2023-03-26T15:31:40.012Z,60.23
2023-03-26T15:34:43.868Z,60.44
2023-03-26T15:40:58.062Z,60.70
2023-03-26T15:44:23.955Z,61.01
2023-03-26T15:47:00.372Z,60.69
2023-03-26T15:49:43.374Z,61.02
2023-03-26T15:52:22.015Z,61.02
2023-03-26T15:55:01.303Z,61.60
2023-03-26T15:57:39.114Z,61.96
2023-03-26T16:00:24.458Z,62.19
2023-03-26T16:03:21.564Z,62.17
2023-03-26T16:06:15.862Z,62.30
2023-03-26T16:08:57.366Z,62.95
2023-03-26T16:11:55.701Z,62.82
2023-03-26T16:14:45.007Z,63.01
2023-03-26T16:17:21.168Z,63.00
2023-03-26T16:20:19.544Z,63.13
2023-03-26T16:23:01.699Z,63.46
2023-03-26T16:25:36.247Z,63.45
2023-03-26T16:28:32.622Z,63.63
2023-03-26T16:31:37.891Z,63.54
2023-03-26T16:34:30.132Z,63.02
2023-03-26T16:37:09.072Z,63.20
2023-03-26T16:39:45.745Z,63.19
2023-03-26T16:42:34.759Z,62.08
2023-03-26T16:45:23.148Z,62.42
2023-03-26T16:48:10.106Z,62.68
2023-03-26T16:50:52.285Z,62.56
2023-03-26T16:53:38.530Z,62.88
2023-03-26T16:56:18.073Z,63.19
2023-03-26T16:58:58.746Z,62.97
2023-03-26T17:01:42.916Z,63.21
2023-03-26T17:04:20.728Z,63.71
2023-03-26T17:07:15.022Z,64.37
2023-03-26T17:10:00.584Z,64.52
2023-03-26T17:12:40.481Z,64.89
2023-03-26T17:15:26.754Z,64.98
2023-03-26T17:18:13.630Z,65.70
2023-03-26T17:20:59.812Z,65.99
2023-03-26T17:23:44.654Z,66.27
2023-03-26T17:26:29.350Z,66.65
2023-03-26T17:29:13.460Z,66.86
2023-03-26T17:31:54.473Z,66.82
2023-03-26T17:35:00.611Z,67.50
2023-03-26T17:37:40.916Z,68.18
2023-03-26T17:40:55.513Z,68.23
2023-03-26T17:43:46.199Z,68.73
2023-03-26T17:46:38.997Z,69.05
2023-03-26T17:49:19.224Z,69.37
2023-03-26T17:51:55.202Z,69.21
2023-03-26T17:54:32.600Z,69.38
2023-03-26T17:57:08.405Z,69.37
2023-03-26T17:59:44.271Z,69.43
2023-03-26T18:02:19.726Z,69.57
2023-03-26T18:04:55.504Z,69.77
2023-03-26T18:07:57.223Z,70.09
2023-03-26T18:10:53.961Z,70.50
2023-03-26T18:13:53.798Z,70.58
2023-03-26T18:16:30.255Z,71.89
2023-03-26T18:19:05.518Z,70.89
2023-03-26T18:21:40.306Z,71.18
2023-03-26T18:24:19.359Z,71.30
2023-03-26T18:26:56.163Z,71.63
2023-03-26T18:29:30.776Z,71.80
2023-03-26T18:32:04.311Z,72.14
2023-03-26T18:34:39.738Z,72.45
2023-03-26T18:37:21.557Z,72.54
2023-03-26T18:40:12.386Z,72.18
2023-03-26T18:42:49.427Z,72.22
2023-03-26T18:45:30.801Z,72.09
2023-03-26T18:48:07.387Z,72.58
2023-03-26T18:50:43.113Z,72.82
2023-03-26T18:53:21.349Z,72.83
2023-03-26T18:55:55.082Z,72.74
2023-03-26T18:58:30.172Z,73.28
2023-03-26T19:01:05.113Z,73.41
2023-03-26T19:03:43.957Z,73.17
2023-03-26T19:06:17.896Z,73.45
2023-03-26T19:08:51.073Z,74.42
2023-03-26T19:11:23.291Z,74.53
2023-03-26T19:14:08.017Z,75.08
2023-03-26T19:16:43.657Z,83.72
2023-03-26T19:19:23.018Z,88.42
2023-03-26T19:21:58.365Z,77.65
2023-03-26T19:24:32.006Z,77.75
2023-03-26T19:27:04.112Z,78.10
2023-03-26T19:29:37.557Z,77.63
2023-03-26T19:32:20.007Z,79.34
2023-03-26T19:34:53.344Z,79.44
2023-03-26T19:37:30.023Z,80.06
2023-03-26T19:40:14.421Z,78.67
2023-03-26T19:42:47.450Z,78.86
2023-03-26T19:45:23.228Z,78.85
2023-03-26T19:48:07.749Z,79.18
2023-03-26T19:50:56.772Z,79.66
2023-03-26T19:53:34.858Z,80.47
2023-03-26T19:56:18.447Z,80.66
2023-03-26T19:58:51.418Z,81.20
2023-03-26T20:01:26.720Z,80.86
2023-03-26T20:04:01.989Z,81.03
2023-03-26T20:06:43.101Z,80.37
2023-03-26T20:09:16.752Z,81.00
2023-03-26T20:11:49.664Z,80.63
2023-03-26T20:14:26.130Z,80.86
2023-03-26T20:16:58.568Z,80.83
2023-03-26T20:19:31.261Z,81.30
2023-03-26T20:22:01.968Z,81.01
2023-03-26T20:24:35.424Z,80.93
2023-03-26T20:27:07.394Z,81.38
2023-03-26T20:29:40.087Z,81.34
2023-03-26T20:32:23.667Z,81.31
2023-03-26T20:34:57.776Z,81.77
2023-03-26T20:37:29.748Z,82.10
2023-03-26T20:40:01.566Z,82.06
2023-03-26T20:42:36.295Z,82.50
2023-03-26T20:45:18.602Z,82.49
2023-03-26T20:47:51.639Z,83.28
2023-03-26T20:50:26.774Z,83.41
2023-03-26T20:52:59.781Z,83.49
2023-03-26T20:55:32.691Z,84.19
2023-03-26T20:58:04.732Z,84.15
2023-03-26T21:00:37.265Z,84.32
2023-03-26T21:03:13.031Z,84.00
2023-03-26T21:05:48.394Z,83.72
2023-03-26T21:08:29.956Z,84.61
2023-03-26T21:11:03.011Z,85.47
2023-03-26T21:13:41.211Z,86.16
2023-03-26T21:16:14.887Z,86.77
2023-03-26T21:18:49.997Z,87.23
2023-03-26T21:21:34.375Z,87.59
2023-03-26T21:24:15.743Z,87.59
2023-03-26T21:26:55.442Z,86.62
2023-03-26T21:29:28.180Z,85.38
2023-03-26T21:31:58.970Z,85.23
2023-03-26T21:34:32.876Z,84.83
2023-03-26T21:37:09.167Z,85.03
2023-03-26T21:39:44.847Z,84.95
2023-03-26T21:42:17.826Z,84.40
2023-03-26T21:44:50.597Z,83.43
2023-03-26T21:47:21.395Z,83.25
2023-03-26T21:49:54.663Z,83.36
2023-03-26T21:52:28.075Z,83.56
2023-03-26T21:55:01.391Z,83.23
2023-03-26T21:57:54.876Z,83.47
2023-03-26T22:00:41.147Z,82.96
2023-03-26T22:03:29.511Z,83.35
2023-03-26T22:06:07.915Z,83.51
2023-03-26T22:08:42.083Z,83.11
2023-03-26T22:11:14.302Z,83.14
2023-03-26T22:13:47.189Z,83.81
2023-03-26T22:16:19.219Z,83.69
2023-03-26T22:18:51.094Z,84.20
2023-03-26T22:21:23.551Z,84.74
2023-03-26T22:23:55.620Z,84.49
2023-03-26T22:26:27.567Z,84.09
2023-03-26T22:28:59.618Z,83.36
2023-03-26T22:31:31.453Z,83.58
2023-03-26T22:34:03.362Z,83.19
2023-03-26T22:36:35.818Z,82.72
2023-03-26T22:39:08.627Z,82.24
2023-03-26T22:41:40.640Z,82.36
2023-03-26T22:44:19.848Z,82.85
2023-03-26T22:46:54.397Z,83.38
2023-03-26T22:49:30.100Z,83.56
2023-03-26T22:52:02.129Z,83.74
2023-03-26T22:54:34.404Z,83.68
2023-03-26T22:57:06.446Z,83.31
2023-03-26T22:59:38.441Z,83.20
2023-03-26T23:02:12.420Z,83.42
2023-03-26T23:04:46.301Z,83.17
2023-03-26T23:07:18.472Z,82.90
2023-03-26T23:09:50.539Z,82.61
2023-03-26T23:12:22.347Z,82.51
2023-03-26T23:14:54.414Z,82.33
2023-03-26T23:17:27.146Z,82.64
2023-03-26T23:20:00.528Z,82.57
2023-03-26T23:22:32.763Z,82.16
2023-03-26T23:25:04.738Z,82.06
2023-03-26T23:27:36.791Z,82.13
2023-03-26T23:30:11.826Z,81.63
2023-03-26T23:32:43.973Z,81.68
2023-03-26T23:35:16.036Z,82.08
2023-03-26T23:37:50.758Z,82.08
2023-03-26T23:40:22.925Z,82.36
2023-03-26T23:42:54.930Z,82.02
2023-03-26T23:45:27.284Z,81.64
2023-03-26T23:47:59.280Z,81.03
2023-03-26T23:50:31.524Z,80.53
2023-03-26T23:53:03.484Z,80.62
2023-03-26T23:55:36.512Z,79.95
2023-03-26T23:58:08.946Z,80.09
